Terminal Aerodrome Forecast
Issued by NWS

Home | Current Version | Previous Version | Graphics & Text | Print | Product List | Glossary On
Versions: 1 2 3 4 5 6 7 8 9 10 11 12 13 14 15 16 17 18 19 20
000
FTUS43 KGRB 261653 AAA
TAFAUW
TAF AMD
KAUW 261653Z 2617/2712 07005KT 6SM -SHRA BR OVC007
      TEMPO 2617/2621 2SM -SHRA OVC004
     FM262200 01005KT 2SM BR OVC003
     FM270400 35003KT 1SM BR OVC002=

USA.gov is the U.S. government's official web portal to all federal, state and local government web resources and services.